sensor_id;sensor_type;location;lat;lon;timestamp;temperature;humidity
2100;DHT22;1055;48.854;9.302;2022-12-29T00:01:36;9.90;99.90
2100;DHT22;1055;48.854;9.302;2022-12-29T00:04:02;10.00;99.90
2100;DHT22;1055;48.854;9.302;2022-12-29T00:06:29;10.20;99.90
2100;DHT22;1055;48.854;9.302;2022-12-29T00:08:57;10.20;99.90
2100;DHT22;1055;48.854;9.302;2022-12-29T00:11:25;10.30;99.90
2100;DHT22;1055;48.854;9.302;2022-12-29T00:13:53;10.40;99.90
2100;DHT22;1055;48.854;9.302;2022-12-29T00:16:41;10.50;99.90
2100;DHT22;1055;48.854;9.302;2022-12-29T00:19:07;10.60;99.90
2100;DHT22;1055;48.854;9.302;2022-12-29T00:21:53;10.60;99.90
2100;DHT22;1055;48.854;9.302;2022-12-29T00:24:38;10.60;99.90
2100;DHT22;1055;48.854;9.302;2022-12-29T00:27:19;10.60;99.90
2100;DHT22;1055;48.854;9.302;2022-12-29T00:30:09;10.60;99.90
2100;DHT22;1055;48.854;9.302;2022-12-29T00:32:54;10.70;99.90
2100;DHT22;1055;48.854;9.302;2022-12-29T00:38:25;10.90;99.90
2100;DHT22;1055;48.854;9.302;2022-12-29T00:41:10;10.90;99.90
2100;DHT22;1055;48.854;9.302;2022-12-29T00:43:54;11.00;99.90
2100;DHT22;1055;48.854;9.302;2022-12-29T00:46:36;11.00;99.90
2100;DHT22;1055;48.854;9.302;2022-12-29T00:49:02;11.00;99.90
2100;DHT22;1055;48.854;9.302;2022-12-29T00:51:47;10.90;99.90
2100;DHT22;1055;48.854;9.302;2022-12-29T00:54:14;10.90;99.90
2100;DHT22;1055;48.854;9.302;2022-12-29T00:56:40;10.90;99.90
2100;DHT22;1055;48.854;9.302;2022-12-29T00:59:08;11.00;99.90
2100;DHT22;1055;48.854;9.302;2022-12-29T01:01:35;11.00;99.90
2100;DHT22;1055;48.854;9.302;2022-12-29T01:04:01;11.00;99.90
2100;DHT22;1055;48.854;9.302;2022-12-29T01:06:27;11.00;99.90
2100;DHT22;1055;48.854;9.302;2022-12-29T01:08:53;11.00;99.90
2100;DHT22;1055;48.854;9.302;2022-12-29T01:11:39;11.00;99.90
2100;DHT22;1055;48.854;9.302;2022-12-29T01:14:08;11.00;99.90
2100;DHT22;1055;48.854;9.302;2022-12-29T01:16:33;10.90;99.90
2100;DHT22;1055;48.854;9.302;2022-12-29T01:19:04;11.00;99.90
2100;DHT22;1055;48.854;9.302;2022-12-29T01:21:30;11.00;99.90
2100;DHT22;1055;48.854;9.302;2022-12-29T01:23:56;11.00;99.90
2100;DHT22;1055;48.854;9.302;2022-12-29T01:26:22;11.00;99.90
2100;DHT22;1055;48.854;9.302;2022-12-29T01:28:48;11.00;99.90
2100;DHT22;1055;48.854;9.302;2022-12-29T01:31:15;10.90;99.90
2100;DHT22;1055;48.854;9.302;2022-12-29T01:33:42;11.00;99.90
2100;DHT22;1055;48.854;9.302;2022-12-29T01:36:11;10.90;99.90
2100;DHT22;1055;48.854;9.302;2022-12-29T01:38:38;10.90;99.90
2100;DHT22;1055;48.854;9.302;2022-12-29T01:41:08;10.90;99.90
2100;DHT22;1055;48.854;9.302;2022-12-29T01:43:44;10.80;99.90
2100;DHT22;1055;48.854;9.302;2022-12-29T01:46:39;10.70;99.90
2100;DHT22;1055;48.854;9.302;2022-12-29T01:54:24;10.70;99.90
2100;DHT22;1055;48.854;9.302;2022-12-29T01:56:54;10.70;99.90
2100;DHT22;1055;48.854;9.302;2022-12-29T01:59:24;10.70;99.90
2100;DHT22;1055;48.854;9.302;2022-12-29T02:01:51;10.60;99.90
2100;DHT22;1055;48.854;9.302;2022-12-29T02:04:17;10.60;99.90
2100;DHT22;1055;48.854;9.302;2022-12-29T02:06:54;10.70;99.90
2100;DHT22;1055;48.854;9.302;2022-12-29T02:09:21;10.70;99.90
2100;DHT22;1055;48.854;9.302;2022-12-29T02:11:48;10.70;99.90
2100;DHT22;1055;48.854;9.302;2022-12-29T02:14:14;10.60;99.90
2100;DHT22;1055;48.854;9.302;2022-12-29T02:17:20;10.80;99.90
2100;DHT22;1055;48.854;9.302;2022-12-29T02:22:49;10.80;99.90
2100;DHT22;1055;48.854;9.302;2022-12-29T02:47:56;11.00;99.90
2100;DHT22;1055;48.854;9.302;2022-12-29T02:53:04;11.10;99.90
2100;DHT22;1055;48.854;9.302;2022-12-29T02:55:31;11.10;99.90
2100;DHT22;1055;48.854;9.302;2022-12-29T02:58:13;11.00;99.90
2100;DHT22;1055;48.854;9.302;2022-12-29T03:01:03;11.10;99.90
2100;DHT22;1055;48.854;9.302;2022-12-29T03:09:39;11.20;99.90
2100;DHT22;1055;48.854;9.302;2022-12-29T03:15:21;11.30;99.90
2100;DHT22;1055;48.854;9.302;2022-12-29T03:18:15;11.30;99.90
2100;DHT22;1055;48.854;9.302;2022-12-29T03:20:52;11.30;99.90
2100;DHT22;1055;48.854;9.302;2022-12-29T03:23:23;11.20;99.90
2100;DHT22;1055;48.854;9.302;2022-12-29T03:25:54;11.10;99.90
2100;DHT22;1055;48.854;9.302;2022-12-29T03:28:24;11.20;99.90
2100;DHT22;1055;48.854;9.302;2022-12-29T03:30:52;11.20;99.90
2100;DHT22;1055;48.854;9.302;2022-12-29T03:33:24;11.10;99.90
2100;DHT22;1055;48.854;9.302;2022-12-29T03:35:55;11.10;99.90
2100;DHT22;1055;48.854;9.302;2022-12-29T03:38:27;11.10;99.90
2100;DHT22;1055;48.854;9.302;2022-12-29T03:40:58;11.10;99.90
2100;DHT22;1055;48.854;9.302;2022-12-29T03:43:26;11.20;99.90
2100;DHT22;1055;48.854;9.302;2022-12-29T03:45:53;11.20;99.90
2100;DHT22;1055;48.854;9.302;2022-12-29T03:48:19;11.30;99.90
2100;DHT22;1055;48.854;9.302;2022-12-29T03:50:47;11.30;99.90
2100;DHT22;1055;48.854;9.302;2022-12-29T03:53:14;11.30;99.90
2100;DHT22;1055;48.854;9.302;2022-12-29T03:55:40;11.40;99.90
2100;DHT22;1055;48.854;9.302;2022-12-29T03:58:05;11.40;99.90
2100;DHT22;1055;48.854;9.302;2022-12-29T04:00:31;11.30;99.90
2100;DHT22;1055;48.854;9.302;2022-12-29T04:02:57;11.40;99.90
2100;DHT22;1055;48.854;9.302;2022-12-29T04:05:23;11.30;99.90
2100;DHT22;1055;48.854;9.302;2022-12-29T04:07:49;11.30;99.90
2100;DHT22;1055;48.854;9.302;2022-12-29T04:10:15;11.30;99.90
2100;DHT22;1055;48.854;9.302;2022-12-29T04:12:41;11.20;99.90
2100;DHT22;1055;48.854;9.302;2022-12-29T04:15:10;11.30;99.90
2100;DHT22;1055;48.854;9.302;2022-12-29T04:17:36;11.30;99.90
2100;DHT22;1055;48.854;9.302;2022-12-29T04:20:02;11.20;99.90
2100;DHT22;1055;48.854;9.302;2022-12-29T04:22:47;11.20;99.90
2100;DHT22;1055;48.854;9.302;2022-12-29T04:25:13;11.20;99.90
2100;DHT22;1055;48.854;9.302;2022-12-29T04:27:39;11.20;99.90
2100;DHT22;1055;48.854;9.302;2022-12-29T04:30:05;11.20;99.90
2100;DHT22;1055;48.854;9.302;2022-12-29T04:32:31;11.20;99.90
2100;DHT22;1055;48.854;9.302;2022-12-29T04:34:56;11.30;99.90
2100;DHT22;1055;48.854;9.302;2022-12-29T04:37:22;11.30;99.90
2100;DHT22;1055;48.854;9.302;2022-12-29T04:39:48;11.30;99.90
2100;DHT22;1055;48.854;9.302;2022-12-29T04:42:14;11.40;99.90
2100;DHT22;1055;48.854;9.302;2022-12-29T04:44:40;11.40;99.90
2100;DHT22;1055;48.854;9.302;2022-12-29T04:47:06;11.40;99.90
2100;DHT22;1055;48.854;9.302;2022-12-29T04:49:31;11.50;99.90
2100;DHT22;1055;48.854;9.302;2022-12-29T04:51:57;11.40;99.90
2100;DHT22;1055;48.854;9.302;2022-12-29T04:54:23;11.30;99.90
2100;DHT22;1055;48.854;9.302;2022-12-29T04:56:49;11.40;99.90
2100;DHT22;1055;48.854;9.302;2022-12-29T04:59:15;11.30;99.90
2100;DHT22;1055;48.854;9.302;2022-12-29T05:01:41;11.40;99.90
2100;DHT22;1055;48.854;9.302;2022-12-29T05:04:07;11.40;99.90
2100;DHT22;1055;48.854;9.302;2022-12-29T05:06:33;11.40;99.90
2100;DHT22;1055;48.854;9.302;2022-12-29T05:08:59;11.30;99.90
2100;DHT22;1055;48.854;9.302;2022-12-29T05:11:25;11.30;99.90
2100;DHT22;1055;48.854;9.302;2022-12-29T05:13:51;11.40;99.90
2100;DHT22;1055;48.854;9.302;2022-12-29T05:16:17;11.40;99.90
2100;DHT22;1055;48.854;9.302;2022-12-29T05:18:42;11.50;99.90
2100;DHT22;1055;48.854;9.302;2022-12-29T05:21:09;11.40;99.90
2100;DHT22;1055;48.854;9.302;2022-12-29T05:23:34;11.40;99.90
2100;DHT22;1055;48.854;9.302;2022-12-29T05:26:00;11.40;99.90
2100;DHT22;1055;48.854;9.302;2022-12-29T05:28:26;11.40;99.90
2100;DHT22;1055;48.854;9.302;2022-12-29T05:30:54;11.40;99.90
2100;DHT22;1055;48.854;9.302;2022-12-29T05:33:20;11.50;99.90
2100;DHT22;1055;48.854;9.302;2022-12-29T05:35:46;11.40;99.90
2100;DHT22;1055;48.854;9.302;2022-12-29T05:38:11;11.40;99.90
2100;DHT22;1055;48.854;9.302;2022-12-29T05:40:37;11.40;99.90
2100;DHT22;1055;48.854;9.302;2022-12-29T05:43:03;11.40;99.90
2100;DHT22;1055;48.854;9.302;2022-12-29T05:45:32;11.40;99.90
2100;DHT22;1055;48.854;9.302;2022-12-29T05:47:58;11.30;99.90
2100;DHT22;1055;48.854;9.302;2022-12-29T05:50:23;11.30;99.90
2100;DHT22;1055;48.854;9.302;2022-12-29T05:52:49;11.30;99.90
2100;DHT22;1055;48.854;9.302;2022-12-29T05:55:16;11.40;99.90
2100;DHT22;1055;48.854;9.302;2022-12-29T05:57:42;11.40;99.90
2100;DHT22;1055;48.854;9.302;2022-12-29T06:00:09;11.30;99.90
2100;DHT22;1055;48.854;9.302;2022-12-29T06:02:37;11.30;99.90
2100;DHT22;1055;48.854;9.302;2022-12-29T06:05:03;11.40;99.90
2100;DHT22;1055;48.854;9.302;2022-12-29T06:07:29;11.40;99.90
2100;DHT22;1055;48.854;9.302;2022-12-29T06:09:55;11.50;99.90
2100;DHT22;1055;48.854;9.302;2022-12-29T06:12:21;11.40;99.90
2100;DHT22;1055;48.854;9.302;2022-12-29T06:14:47;11.30;99.90
2100;DHT22;1055;48.854;9.302;2022-12-29T06:17:13;11.30;99.90
2100;DHT22;1055;48.854;9.302;2022-12-29T06:19:39;11.30;99.90
2100;DHT22;1055;48.854;9.302;2022-12-29T06:22:05;11.30;99.90
2100;DHT22;1055;48.854;9.302;2022-12-29T06:24:32;11.40;99.90
2100;DHT22;1055;48.854;9.302;2022-12-29T06:26:58;11.40;99.90
2100;DHT22;1055;48.854;9.302;2022-12-29T06:29:24;11.40;99.90
2100;DHT22;1055;48.854;9.302;2022-12-29T06:31:53;11.40;99.90
2100;DHT22;1055;48.854;9.302;2022-12-29T06:34:23;11.30;99.90
2100;DHT22;1055;48.854;9.302;2022-12-29T06:36:49;11.40;99.90
2100;DHT22;1055;48.854;9.302;2022-12-29T06:39:15;11.40;99.90
2100;DHT22;1055;48.854;9.302;2022-12-29T06:41:41;11.40;99.90
2100;DHT22;1055;48.854;9.302;2022-12-29T06:44:07;11.30;99.90
2100;DHT22;1055;48.854;9.302;2022-12-29T06:46:33;11.30;99.90
2100;DHT22;1055;48.854;9.302;2022-12-29T06:48:59;11.30;99.90
2100;DHT22;1055;48.854;9.302;2022-12-29T06:51:24;11.30;99.90
2100;DHT22;1055;48.854;9.302;2022-12-29T06:53:53;11.30;99.90
2100;DHT22;1055;48.854;9.302;2022-12-29T06:56:19;11.30;99.90
2100;DHT22;1055;48.854;9.302;2022-12-29T06:58:45;11.30;99.90
2100;DHT22;1055;48.854;9.302;2022-12-29T07:01:13;11.10;99.90
2100;DHT22;1055;48.854;9.302;2022-12-29T07:03:41;11.20;99.90
2100;DHT22;1055;48.854;9.302;2022-12-29T07:06:07;11.20;99.90
2100;DHT22;1055;48.854;9.302;2022-12-29T07:08:36;11.30;99.90
2100;DHT22;1055;48.854;9.302;2022-12-29T07:11:01;11.20;99.90
2100;DHT22;1055;48.854;9.302;2022-12-29T07:13:30;11.10;99.90
2100;DHT22;1055;48.854;9.302;2022-12-29T07:15:56;11.20;99.90
2100;DHT22;1055;48.854;9.302;2022-12-29T07:18:24;11.10;99.90
2100;DHT22;1055;48.854;9.302;2022-12-29T07:20:49;11.00;99.90
2100;DHT22;1055;48.854;9.302;2022-12-29T07:23:17;11.10;99.90
2100;DHT22;1055;48.854;9.302;2022-12-29T07:25:43;10.90;99.90
2100;DHT22;1055;48.854;9.302;2022-12-29T07:28:08;11.00;99.90
2100;DHT22;1055;48.854;9.302;2022-12-29T07:30:36;10.90;99.90
2100;DHT22;1055;48.854;9.302;2022-12-29T07:33:02;10.90;99.90
2100;DHT22;1055;48.854;9.302;2022-12-29T07:35:28;10.90;99.90
2100;DHT22;1055;48.854;9.302;2022-12-29T07:37:57;10.90;99.90
2100;DHT22;1055;48.854;9.302;2022-12-29T07:40:23;10.90;99.90
2100;DHT22;1055;48.854;9.302;2022-12-29T07:42:48;10.90;99.90
2100;DHT22;1055;48.854;9.302;2022-12-29T07:45:14;11.00;99.90
2100;DHT22;1055;48.854;9.302;2022-12-29T07:47:40;10.90;99.90
2100;DHT22;1055;48.854;9.302;2022-12-29T07:50:06;10.80;99.90
2100;DHT22;1055;48.854;9.302;2022-12-29T07:52:32;10.80;99.90
2100;DHT22;1055;48.854;9.302;2022-12-29T07:55:00;10.90;99.90
2100;DHT22;1055;48.854;9.302;2022-12-29T07:57:26;10.90;99.90
2100;DHT22;1055;48.854;9.302;2022-12-29T07:59:51;10.90;99.90
2100;DHT22;1055;48.854;9.302;2022-12-29T08:02:20;11.00;99.90
2100;DHT22;1055;48.854;9.302;2022-12-29T08:04:45;11.00;99.90
2100;DHT22;1055;48.854;9.302;2022-12-29T08:07:11;11.10;99.90
2100;DHT22;1055;48.854;9.302;2022-12-29T08:09:37;11.10;99.90
2100;DHT22;1055;48.854;9.302;2022-12-29T08:12:03;11.10;99.90
2100;DHT22;1055;48.854;9.302;2022-12-29T08:14:29;11.20;99.90
2100;DHT22;1055;48.854;9.302;2022-12-29T08:16:57;11.20;99.90
2100;DHT22;1055;48.854;9.302;2022-12-29T08:19:23;11.20;99.90
2100;DHT22;1055;48.854;9.302;2022-12-29T08:21:49;11.30;99.90
2100;DHT22;1055;48.854;9.302;2022-12-29T08:24:15;11.30;99.90
2100;DHT22;1055;48.854;9.302;2022-12-29T08:26:40;11.40;99.90
2100;DHT22;1055;48.854;9.302;2022-12-29T08:29:06;11.50;99.90
2100;DHT22;1055;48.854;9.302;2022-12-29T08:31:32;11.60;99.90
2100;DHT22;1055;48.854;9.302;2022-12-29T08:34:00;11.60;99.90
2100;DHT22;1055;48.854;9.302;2022-12-29T08:36:29;11.70;99.90
2100;DHT22;1055;48.854;9.302;2022-12-29T08:38:55;11.80;99.90
2100;DHT22;1055;48.854;9.302;2022-12-29T08:41:20;11.80;99.90
2100;DHT22;1055;48.854;9.302;2022-12-29T08:43:47;11.80;99.90
2100;DHT22;1055;48.854;9.302;2022-12-29T08:46:13;11.90;99.90
2100;DHT22;1055;48.854;9.302;2022-12-29T08:48:39;11.90;99.90
2100;DHT22;1055;48.854;9.302;2022-12-29T08:51:05;11.80;99.90
2100;DHT22;1055;48.854;9.302;2022-12-29T08:53:33;11.90;99.90
2100;DHT22;1055;48.854;9.302;2022-12-29T08:56:00;11.90;99.90
2100;DHT22;1055;48.854;9.302;2022-12-29T08:58:29;11.90;99.90
2100;DHT22;1055;48.854;9.302;2022-12-29T09:00:58;12.00;99.90
2100;DHT22;1055;48.854;9.302;2022-12-29T09:03:24;12.00;99.90
2100;DHT22;1055;48.854;9.302;2022-12-29T09:05:51;12.10;99.90
2100;DHT22;1055;48.854;9.302;2022-12-29T09:08:17;12.10;99.90
2100;DHT22;1055;48.854;9.302;2022-12-29T09:10:49;12.20;99.90
2100;DHT22;1055;48.854;9.302;2022-12-29T09:13:16;12.30;99.90
2100;DHT22;1055;48.854;9.302;2022-12-29T09:15:42;12.30;99.90
2100;DHT22;1055;48.854;9.302;2022-12-29T09:18:09;12.40;99.90
2100;DHT22;1055;48.854;9.302;2022-12-29T09:20:37;12.40;99.90
2100;DHT22;1055;48.854;9.302;2022-12-29T09:23:03;12.40;99.90
2100;DHT22;1055;48.854;9.302;2022-12-29T09:25:35;12.40;99.90
2100;DHT22;1055;48.854;9.302;2022-12-29T09:28:01;12.40;99.90
2100;DHT22;1055;48.854;9.302;2022-12-29T09:30:34;12.40;99.90
2100;DHT22;1055;48.854;9.302;2022-12-29T09:33:00;12.40;99.90
2100;DHT22;1055;48.854;9.302;2022-12-29T09:35:30;12.40;99.90
2100;DHT22;1055;48.854;9.302;2022-12-29T09:37:58;12.50;99.90
2100;DHT22;1055;48.854;9.302;2022-12-29T09:40:27;12.40;99.90
2100;DHT22;1055;48.854;9.302;2022-12-29T09:48:29;12.50;99.90
2100;DHT22;1055;48.854;9.302;2022-12-29T09:51:03;12.60;99.90
2100;DHT22;1055;48.854;9.302;2022-12-29T09:53:39;12.60;99.90
2100;DHT22;1055;48.854;9.302;2022-12-29T09:56:19;12.70;99.90
2100;DHT22;1055;48.854;9.302;2022-12-29T10:01:59;12.80;99.90
2100;DHT22;1055;48.854;9.302;2022-12-29T10:04:30;12.90;99.90
2100;DHT22;1055;48.854;9.302;2022-12-29T10:07:18;13.00;99.90
2100;DHT22;1055;48.854;9.302;2022-12-29T10:10:15;13.00;99.90
2100;DHT22;1055;48.854;9.302;2022-12-29T10:12:55;12.90;99.90
2100;DHT22;1055;48.854;9.302;2022-12-29T10:16:09;12.90;99.90
2100;DHT22;1055;48.854;9.302;2022-12-29T10:23:54;12.80;99.90
2100;DHT22;1055;48.854;9.302;2022-12-29T10:26:37;12.80;99.90
2100;DHT22;1055;48.854;9.302;2022-12-29T10:29:14;12.80;99.90
2100;DHT22;1055;48.854;9.302;2022-12-29T10:34:21;12.80;99.90
2100;DHT22;1055;48.854;9.302;2022-12-29T10:36:53;12.80;99.90
2100;DHT22;1055;48.854;9.302;2022-12-29T10:39:47;12.80;99.90
2100;DHT22;1055;48.854;9.302;2022-12-29T10:42:37;12.80;99.90
2100;DHT22;1055;48.854;9.302;2022-12-29T10:45:13;12.70;99.90
2100;DHT22;1055;48.854;9.302;2022-12-29T10:47:51;12.70;99.90
2100;DHT22;1055;48.854;9.302;2022-12-29T10:50:19;12.80;99.90
2100;DHT22;1055;48.854;9.302;2022-12-29T10:52:45;12.90;99.90
2100;DHT22;1055;48.854;9.302;2022-12-29T10:55:22;12.90;99.90
2100;DHT22;1055;48.854;9.302;2022-12-29T10:57:49;12.90;99.90
2100;DHT22;1055;48.854;9.302;2022-12-29T11:00:20;13.00;99.90
2100;DHT22;1055;48.854;9.302;2022-12-29T11:03:12;13.00;99.90
2100;DHT22;1055;48.854;9.302;2022-12-29T11:08:30;13.20;99.90
2100;DHT22;1055;48.854;9.302;2022-12-29T11:10:59;13.30;99.90
2100;DHT22;1055;48.854;9.302;2022-12-29T11:13:31;13.40;99.90
2100;DHT22;1055;48.854;9.302;2022-12-29T11:16:00;13.50;99.90
2100;DHT22;1055;48.854;9.302;2022-12-29T11:18:38;13.60;99.90
2100;DHT22;1055;48.854;9.302;2022-12-29T11:21:29;13.60;99.90
2100;DHT22;1055;48.854;9.302;2022-12-29T11:24:01;13.60;99.90
2100;DHT22;1055;48.854;9.302;2022-12-29T11:26:30;13.70;99.90
2100;DHT22;1055;48.854;9.302;2022-12-29T11:31:48;13.80;99.90
2100;DHT22;1055;48.854;9.302;2022-12-29T11:34:26;13.80;99.90
2100;DHT22;1055;48.854;9.302;2022-12-29T11:37:02;13.80;99.90
2100;DHT22;1055;48.854;9.302;2022-12-29T11:39:41;13.80;99.90
2100;DHT22;1055;48.854;9.302;2022-12-29T11:42:18;13.80;99.90
2100;DHT22;1055;48.854;9.302;2022-12-29T11:44:49;13.90;99.90
2100;DHT22;1055;48.854;9.302;2022-12-29T11:47:33;13.90;99.90
2100;DHT22;1055;48.854;9.302;2022-12-29T11:50:05;13.90;99.90
2100;DHT22;1055;48.854;9.302;2022-12-29T11:52:35;13.90;99.90
2100;DHT22;1055;48.854;9.302;2022-12-29T11:55:06;13.80;99.90
2100;DHT22;1055;48.854;9.302;2022-12-29T11:57:33;13.70;99.90
2100;DHT22;1055;48.854;9.302;2022-12-29T12:00:09;13.60;99.90
2100;DHT22;1055;48.854;9.302;2022-12-29T12:08:05;12.70;99.90
2100;DHT22;1055;48.854;9.302;2022-12-29T12:10:43;12.40;99.90
2100;DHT22;1055;48.854;9.302;2022-12-29T12:16:06;12.20;99.90
2100;DHT22;1055;48.854;9.302;2022-12-29T12:19:03;12.10;99.90
2100;DHT22;1055;48.854;9.302;2022-12-29T12:21:41;12.00;99.90
2100;DHT22;1055;48.854;9.302;2022-12-29T12:32:19;12.10;99.90
2100;DHT22;1055;48.854;9.302;2022-12-29T12:34:49;12.10;99.90
2100;DHT22;1055;48.854;9.302;2022-12-29T13:00:10;12.50;99.90
2100;DHT22;1055;48.854;9.302;2022-12-29T13:02:56;12.60;99.90
2100;DHT22;1055;48.854;9.302;2022-12-29T13:06:01;12.50;99.90
2100;DHT22;1055;48.854;9.302;2022-12-29T13:11:22;12.40;99.90
2100;DHT22;1055;48.854;9.302;2022-12-29T13:16:55;12.40;99.90
2100;DHT22;1055;48.854;9.302;2022-12-29T13:22:38;12.50;99.90
2100;DHT22;1055;48.854;9.302;2022-12-29T13:25:27;12.60;99.90
2100;DHT22;1055;48.854;9.302;2022-12-29T13:33:27;12.60;99.90
2100;DHT22;1055;48.854;9.302;2022-12-29T13:36:03;12.60;99.90
2100;DHT22;1055;48.854;9.302;2022-12-29T13:38:38;12.50;99.90
2100;DHT22;1055;48.854;9.302;2022-12-29T13:41:10;12.40;99.90
2100;DHT22;1055;48.854;9.302;2022-12-29T13:43:40;12.40;99.90
2100;DHT22;1055;48.854;9.302;2022-12-29T13:49:20;12.30;99.90
2100;DHT22;1055;48.854;9.302;2022-12-29T13:59:52;12.40;99.90
2100;DHT22;1055;48.854;9.302;2022-12-29T14:05:31;12.30;99.90
2100;DHT22;1055;48.854;9.302;2022-12-29T14:08:01;12.30;99.90
2100;DHT22;1055;48.854;9.302;2022-12-29T14:10:38;12.30;99.90
2100;DHT22;1055;48.854;9.302;2022-12-29T14:13:12;12.30;99.90
2100;DHT22;1055;48.854;9.302;2022-12-29T14:15:51;12.30;99.90
2100;DHT22;1055;48.854;9.302;2022-12-29T14:18:24;12.20;99.90
2100;DHT22;1055;48.854;9.302;2022-12-29T14:26:13;12.20;99.90
2100;DHT22;1055;48.854;9.302;2022-12-29T14:28:45;12.20;99.90
2100;DHT22;1055;48.854;9.302;2022-12-29T14:36:38;12.20;99.90
2100;DHT22;1055;48.854;9.302;2022-12-29T14:39:28;12.20;99.90
2100;DHT22;1055;48.854;9.302;2022-12-29T14:44:49;12.30;99.90
2100;DHT22;1055;48.854;9.302;2022-12-29T14:47:38;12.30;99.90
2100;DHT22;1055;48.854;9.302;2022-12-29T14:50:06;12.20;99.90
2100;DHT22;1055;48.854;9.302;2022-12-29T14:52:56;12.20;99.90
2100;DHT22;1055;48.854;9.302;2022-12-29T14:58:05;12.20;99.90
2100;DHT22;1055;48.854;9.302;2022-12-29T15:00:35;12.00;99.90
2100;DHT22;1055;48.854;9.302;2022-12-29T15:03:08;12.00;99.90
2100;DHT22;1055;48.854;9.302;2022-12-29T15:05:45;12.10;99.90
2100;DHT22;1055;48.854;9.302;2022-12-29T15:08:16;12.10;99.90
2100;DHT22;1055;48.854;9.302;2022-12-29T15:10:56;12.10;99.90
2100;DHT22;1055;48.854;9.302;2022-12-29T15:13:36;12.10;99.90
2100;DHT22;1055;48.854;9.302;2022-12-29T15:16:05;12.00;99.90
2100;DHT22;1055;48.854;9.302;2022-12-29T15:18:52;12.10;99.90
2100;DHT22;1055;48.854;9.302;2022-12-29T15:21:24;12.10;99.90
2100;DHT22;1055;48.854;9.302;2022-12-29T15:23:51;12.00;99.90
2100;DHT22;1055;48.854;9.302;2022-12-29T15:26:18;12.00;99.90
2100;DHT22;1055;48.854;9.302;2022-12-29T15:28:49;12.00;99.90
2100;DHT22;1055;48.854;9.302;2022-12-29T15:31:21;12.00;99.90
2100;DHT22;1055;48.854;9.302;2022-12-29T15:33:54;12.00;99.90
2100;DHT22;1055;48.854;9.302;2022-12-29T15:36:26;12.00;99.90
2100;DHT22;1055;48.854;9.302;2022-12-29T15:38:55;12.00;99.90
2100;DHT22;1055;48.854;9.302;2022-12-29T15:41:53;12.00;99.90
2100;DHT22;1055;48.854;9.302;2022-12-29T15:47:11;12.00;99.90
2100;DHT22;1055;48.854;9.302;2022-12-29T15:49:38;12.00;99.90
2100;DHT22;1055;48.854;9.302;2022-12-29T15:52:09;12.10;99.90
2100;DHT22;1055;48.854;9.302;2022-12-29T15:54:38;11.40;99.90
2100;DHT22;1055;48.854;9.302;2022-12-29T15:57:22;11.00;99.90
2100;DHT22;1055;48.854;9.302;2022-12-29T15:59:51;10.80;99.90
2100;DHT22;1055;48.854;9.302;2022-12-29T16:02:18;10.40;99.90
2100;DHT22;1055;48.854;9.302;2022-12-29T16:04:45;10.50;99.90
2100;DHT22;1055;48.854;9.302;2022-12-29T16:10:01;10.30;99.90
2100;DHT22;1055;48.854;9.302;2022-12-29T16:12:35;10.30;99.90
2100;DHT22;1055;48.854;9.302;2022-12-29T16:15:05;10.20;99.90
2100;DHT22;1055;48.854;9.302;2022-12-29T16:17:47;10.20;99.90
2100;DHT22;1055;48.854;9.302;2022-12-29T16:20:25;10.20;99.90
2100;DHT22;1055;48.854;9.302;2022-12-29T16:22:58;10.30;99.90
2100;DHT22;1055;48.854;9.302;2022-12-29T16:25:28;10.30;99.90
2100;DHT22;1055;48.854;9.302;2022-12-29T16:27:57;10.30;99.90
2100;DHT22;1055;48.854;9.302;2022-12-29T16:30:29;10.20;99.90
2100;DHT22;1055;48.854;9.302;2022-12-29T16:33:00;10.20;99.90
2100;DHT22;1055;48.854;9.302;2022-12-29T16:35:45;10.30;99.90
2100;DHT22;1055;48.854;9.302;2022-12-29T16:38:15;10.20;99.90
2100;DHT22;1055;48.854;9.302;2022-12-29T16:43:29;10.10;99.90
2100;DHT22;1055;48.854;9.302;2022-12-29T16:48:54;10.00;99.90
2100;DHT22;1055;48.854;9.302;2022-12-29T16:51:35;10.00;99.90
2100;DHT22;1055;48.854;9.302;2022-12-29T16:54:02;10.00;99.90
2100;DHT22;1055;48.854;9.302;2022-12-29T16:56:33;10.00;99.90
2100;DHT22;1055;48.854;9.302;2022-12-29T16:59:09;10.00;99.90
2100;DHT22;1055;48.854;9.302;2022-12-29T17:01:43;10.10;99.90
2100;DHT22;1055;48.854;9.302;2022-12-29T17:04:13;10.10;99.90
2100;DHT22;1055;48.854;9.302;2022-12-29T17:06:40;10.10;99.90
2100;DHT22;1055;48.854;9.302;2022-12-29T17:09:26;10.10;99.90
2100;DHT22;1055;48.854;9.302;2022-12-29T17:11:57;10.00;99.90
2100;DHT22;1055;48.854;9.302;2022-12-29T17:17:03;9.90;99.90
2100;DHT22;1055;48.854;9.302;2022-12-29T17:19:35;9.90;99.90
2100;DHT22;1055;48.854;9.302;2022-12-29T17:22:02;9.90;99.90
2100;DHT22;1055;48.854;9.302;2022-12-29T17:24:32;9.90;99.90
2100;DHT22;1055;48.854;9.302;2022-12-29T17:26:59;10.00;99.90
2100;DHT22;1055;48.854;9.302;2022-12-29T17:30:02;10.00;99.90
2100;DHT22;1055;48.854;9.302;2022-12-29T17:32:34;10.10;99.90
2100;DHT22;1055;48.854;9.302;2022-12-29T17:35:04;10.10;99.90
2100;DHT22;1055;48.854;9.302;2022-12-29T17:37:36;10.10;99.90
2100;DHT22;1055;48.854;9.302;2022-12-29T17:40:05;10.00;99.90
2100;DHT22;1055;48.854;9.302;2022-12-29T17:42:45;10.20;99.90
2100;DHT22;1055;48.854;9.302;2022-12-29T17:45:22;10.30;99.90
2100;DHT22;1055;48.854;9.302;2022-12-29T17:47:49;10.30;99.90
2100;DHT22;1055;48.854;9.302;2022-12-29T17:50:20;10.10;99.90
2100;DHT22;1055;48.854;9.302;2022-12-29T17:52:55;10.00;99.90
2100;DHT22;1055;48.854;9.302;2022-12-29T17:55:23;10.00;99.90
2100;DHT22;1055;48.854;9.302;2022-12-29T17:57:49;9.90;99.90
2100;DHT22;1055;48.854;9.302;2022-12-29T18:00:24;10.00;99.90
2100;DHT22;1055;48.854;9.302;2022-12-29T18:02:57;10.00;99.90
2100;DHT22;1055;48.854;9.302;2022-12-29T18:05:28;10.00;99.90
2100;DHT22;1055;48.854;9.302;2022-12-29T18:07:57;10.00;99.90
2100;DHT22;1055;48.854;9.302;2022-12-29T18:10:26;10.00;99.90
2100;DHT22;1055;48.854;9.302;2022-12-29T18:12:54;10.00;99.90
2100;DHT22;1055;48.854;9.302;2022-12-29T18:15:25;10.00;99.90
2100;DHT22;1055;48.854;9.302;2022-12-29T18:18:16;9.80;99.90
2100;DHT22;1055;48.854;9.302;2022-12-29T18:20:43;9.50;99.90
2100;DHT22;1055;48.854;9.302;2022-12-29T18:23:25;9.60;99.90
2100;DHT22;1055;48.854;9.302;2022-12-29T18:25:57;9.50;99.90
2100;DHT22;1055;48.854;9.302;2022-12-29T18:28:24;9.50;99.90
2100;DHT22;1055;48.854;9.302;2022-12-29T18:30:50;9.50;99.90
2100;DHT22;1055;48.854;9.302;2022-12-29T18:33:23;9.40;99.90
2100;DHT22;1055;48.854;9.302;2022-12-29T18:35:55;9.20;99.90
2100;DHT22;1055;48.854;9.302;2022-12-29T18:38:22;9.40;99.90
2100;DHT22;1055;48.854;9.302;2022-12-29T18:40:48;9.40;99.90
2100;DHT22;1055;48.854;9.302;2022-12-29T18:43:15;9.50;99.90
2100;DHT22;1055;48.854;9.302;2022-12-29T18:45:41;9.50;99.90
2100;DHT22;1055;48.854;9.302;2022-12-29T18:48:11;9.60;99.90
2100;DHT22;1055;48.854;9.302;2022-12-29T18:50:37;9.50;99.90
2100;DHT22;1055;48.854;9.302;2022-12-29T18:53:03;9.50;99.90
2100;DHT22;1055;48.854;9.302;2022-12-29T18:55:32;9.50;99.90
2100;DHT22;1055;48.854;9.302;2022-12-29T18:57:58;9.40;99.90
2100;DHT22;1055;48.854;9.302;2022-12-29T19:00:26;9.50;99.90
2100;DHT22;1055;48.854;9.302;2022-12-29T19:02:52;9.40;99.90
2100;DHT22;1055;48.854;9.302;2022-12-29T19:05:25;9.40;99.90
2100;DHT22;1055;48.854;9.302;2022-12-29T19:07:52;9.40;99.90
2100;DHT22;1055;48.854;9.302;2022-12-29T19:10:19;9.30;99.90
2100;DHT22;1055;48.854;9.302;2022-12-29T19:12:46;9.30;99.90